createdAt,value
2023-03-28T00:00:34.588Z,4.84
2023-03-28T00:06:04.136Z,5.10
2023-03-28T00:11:32.457Z,5.12
2023-03-28T00:17:02.210Z,4.92
2023-03-28T00:22:30.839Z,4.97
2023-03-28T00:27:59.015Z,4.94
2023-03-28T00:33:26.349Z,4.83
2023-03-28T00:38:54.259Z,4.90
2023-03-28T00:44:51.096Z,4.90
2023-03-28T00:50:21.318Z,5.07
2023-03-28T00:55:54.912Z,4.94
2023-03-28T01:01:22.762Z,4.90
2023-03-28T01:06:55.043Z,4.99
2023-03-28T01:12:24.249Z,5.06
2023-03-28T01:17:53.787Z,5.28
2023-03-28T01:23:52.563Z,5.44
2023-03-28T01:29:49.612Z,5.46
2023-03-28T01:35:57.216Z,5.79
2023-03-28T01:41:43.823Z,5.79
2023-03-28T01:47:23.366Z,5.90
2023-03-28T01:52:58.900Z,5.98
2023-03-28T01:58:48.365Z,6.30
2023-03-28T02:04:26.929Z,6.38
2023-03-28T02:09:58.450Z,6.61
2023-03-28T02:15:55.458Z,6.47
2023-03-28T02:21:35.716Z,6.46
2023-03-28T02:27:28.961Z,6.31
2023-03-28T02:33:38.264Z,6.02
2023-03-28T02:39:29.924Z,6.37
2023-03-28T02:45:06.477Z,6.60
2023-03-28T02:51:01.628Z,6.69
2023-03-28T02:56:37.392Z,6.61
2023-03-28T03:02:08.640Z,6.14
2023-03-28T03:07:38.024Z,6.19
2023-03-28T03:13:06.484Z,6.10
2023-03-28T03:18:35.233Z,6.38
2023-03-28T03:24:03.432Z,6.67
2023-03-28T03:29:38.634Z,6.40
2023-03-28T03:35:08.116Z,6.32
2023-03-28T03:40:38.209Z,6.56
2023-03-28T03:46:06.354Z,6.51
2023-03-28T03:51:34.479Z,6.58
2023-03-28T03:57:03.206Z,6.66
2023-03-28T04:02:32.044Z,6.26
2023-03-28T04:08:02.191Z,6.48
2023-03-28T04:13:37.453Z,6.40
2023-03-28T04:19:08.853Z,6.41
2023-03-28T04:24:37.762Z,6.50
2023-03-28T04:30:18.219Z,6.50
2023-03-28T04:36:04.584Z,6.56
2023-03-28T04:41:33.484Z,6.39
2023-03-28T04:47:04.105Z,6.51
2023-03-28T04:52:32.904Z,6.64
2023-03-28T04:57:59.946Z,6.71
2023-03-28T05:03:28.255Z,6.46
2023-03-28T05:09:02.189Z,6.63
2023-03-28T05:14:29.772Z,6.45
2023-03-28T05:20:11.356Z,6.23
2023-03-28T05:25:52.430Z,8.72
2023-03-28T05:31:21.122Z,8.23
2023-03-28T05:36:59.753Z,7.38
2023-03-28T05:42:30.522Z,7.47
2023-03-28T05:47:58.092Z,7.13
2023-03-28T05:53:25.724Z,7.18
2023-03-28T05:58:53.858Z,7.32
2023-03-28T06:04:22.966Z,7.53
2023-03-28T06:09:51.489Z,7.56
2023-03-28T06:15:20.496Z,7.48
2023-03-28T06:20:51.557Z,7.57
2023-03-28T06:26:19.935Z,7.75
2023-03-28T06:31:47.731Z,9.06
2023-03-28T06:37:15.290Z,9.50
2023-03-28T06:43:03.093Z,8.86
2023-03-28T06:48:50.680Z,8.23
2023-03-28T06:54:43.505Z,8.13
2023-03-28T07:00:11.758Z,8.21
2023-03-28T07:06:10.778Z,7.99
2023-03-28T07:11:38.560Z,9.06
2023-03-28T07:17:06.187Z,9.24
2023-03-28T07:22:35.834Z,12.86
2023-03-28T07:28:03.586Z,12.50
2023-03-28T07:33:37.373Z,10.34
2023-03-28T07:39:17.166Z,10.14
2023-03-28T07:44:44.847Z,10.81
2023-03-28T07:50:12.623Z,10.69
2023-03-28T07:55:54.410Z,12.69
2023-03-28T08:01:37.609Z,10.84
2023-03-28T08:07:08.087Z,10.63
2023-03-28T08:12:37.861Z,10.61
2023-03-28T08:18:05.732Z,13.45
2023-03-28T08:23:33.649Z,15.87
2023-03-28T08:29:29.648Z,14.25
2023-03-28T08:34:58.834Z,11.99
2023-03-28T08:40:29.633Z,10.97
2023-03-28T08:46:04.689Z,9.89
2023-03-28T08:51:38.095Z,10.84
2023-03-28T08:57:10.834Z,12.27
2023-03-28T09:02:39.136Z,15.96
2023-03-28T09:08:19.906Z,14.71
2023-03-28T09:14:36.686Z,9.38
2023-03-28T09:20:20.205Z,9.20
2023-03-28T09:26:22.634Z,11.80
2023-03-28T09:32:03.635Z,13.73
2023-03-28T09:37:42.187Z,14.35
2023-03-28T09:43:18.964Z,13.08
2023-03-28T09:49:01.403Z,13.56
2023-03-28T09:54:36.074Z,14.15
2023-03-28T10:00:08.437Z,12.26
2023-03-28T10:05:45.441Z,12.50
2023-03-28T10:11:45.284Z,11.34
2023-03-28T10:17:34.741Z,11.02
2023-03-28T10:23:05.831Z,10.74
2023-03-28T10:28:37.436Z,11.28
2023-03-28T10:34:05.094Z,10.57
2023-03-28T10:40:06.066Z,10.71
2023-03-28T10:46:02.823Z,11.44
2023-03-28T10:51:49.713Z,11.93
2023-03-28T10:57:29.664Z,11.93
2023-03-28T11:03:23.010Z,11.71
2023-03-28T11:09:26.765Z,12.07
2023-03-28T11:15:23.654Z,11.84
2023-03-28T11:21:09.855Z,11.79
2023-03-28T11:27:20.731Z,11.87
2023-03-28T11:33:19.658Z,10.78
2023-03-28T11:39:01.715Z,10.51
2023-03-28T11:45:10.604Z,10.31
2023-03-28T11:51:05.608Z,10.77
2023-03-28T11:56:52.829Z,11.04
2023-03-28T12:02:51.948Z,8.88
2023-03-28T12:08:32.422Z,8.24
2023-03-28T12:14:28.755Z,9.22
2023-03-28T12:20:01.034Z,9.00
2023-03-28T12:25:45.181Z,8.24
2023-03-28T12:31:51.078Z,6.68
2023-03-28T12:37:33.574Z,6.93
2023-03-28T12:43:08.039Z,7.79
2023-03-28T12:48:44.011Z,8.46
2023-03-28T12:54:17.804Z,9.24
2023-03-28T13:00:11.142Z,9.28
2023-03-28T13:06:10.911Z,9.29
2023-03-28T13:12:20.329Z,9.65
2023-03-28T13:18:14.882Z,9.77
2023-03-28T13:23:47.855Z,10.09
2023-03-28T13:29:16.903Z,10.86
2023-03-28T13:35:00.280Z,11.10
2023-03-28T13:41:07.253Z,12.28
2023-03-28T13:46:49.274Z,11.18
2023-03-28T13:52:23.103Z,8.69
2023-03-28T13:57:51.761Z,9.15
2023-03-28T14:03:20.903Z,9.27
2023-03-28T14:08:51.394Z,8.40
2023-03-28T14:14:29.360Z,8.67
2023-03-28T14:19:59.844Z,8.51
2023-03-28T14:25:28.057Z,8.96
2023-03-28T14:30:58.358Z,10.11
2023-03-28T14:36:32.277Z,9.23
2023-03-28T14:42:04.694Z,9.35
2023-03-28T14:47:34.647Z,9.97
2023-03-28T14:53:10.178Z,9.54
2023-03-28T14:58:40.990Z,8.86
2023-03-28T15:04:15.429Z,8.40
2023-03-28T15:09:43.936Z,8.18
2023-03-28T15:15:30.061Z,8.13
2023-03-28T15:21:01.741Z,8.00
2023-03-28T15:26:48.564Z,7.80
2023-03-28T15:32:20.904Z,7.33
2023-03-28T15:37:50.105Z,7.68
2023-03-28T15:43:27.435Z,7.16
2023-03-28T15:49:03.942Z,7.22
2023-03-28T15:54:35.344Z,7.45
2023-03-28T16:00:02.910Z,7.29
2023-03-28T16:05:41.084Z,7.18
2023-03-28T16:11:27.999Z,7.55
2023-03-28T16:17:13.915Z,7.57
2023-03-28T16:22:49.963Z,7.57
2023-03-28T16:28:18.867Z,7.68
2023-03-28T16:33:46.511Z,7.71
2023-03-28T16:39:13.719Z,7.31
2023-03-28T16:44:41.190Z,7.65
2023-03-28T16:50:10.098Z,7.80
2023-03-28T16:55:38.659Z,7.12
2023-03-28T17:01:14.153Z,7.34
2023-03-28T17:06:45.380Z,7.08
2023-03-28T17:12:15.623Z,7.08
2023-03-28T17:17:43.835Z,6.88
2023-03-28T17:23:11.431Z,6.59
2023-03-28T17:28:42.413Z,6.30
2023-03-28T17:34:13.040Z,6.25
2023-03-28T17:39:40.389Z,6.14
2023-03-28T17:45:12.177Z,6.09
2023-03-28T17:50:41.936Z,5.69
2023-03-28T17:56:11.587Z,5.63
2023-03-28T18:01:40.461Z,5.50
2023-03-28T18:07:16.767Z,5.52
2023-03-28T18:12:50.246Z,5.30
2023-03-28T18:18:18.842Z,5.05
2023-03-28T18:23:50.896Z,4.86
2023-03-28T18:29:17.926Z,4.65
2023-03-28T18:34:46.944Z,4.49
2023-03-28T18:40:14.796Z,4.24
2023-03-28T18:45:42.260Z,4.12
2023-03-28T18:51:10.688Z,3.80
2023-03-28T18:56:40.108Z,3.69
2023-03-28T19:02:17.380Z,3.54
2023-03-28T19:07:47.323Z,3.43
2023-03-28T19:13:17.638Z,3.18
2023-03-28T19:18:48.742Z,3.09
2023-03-28T19:24:19.513Z,3.20
2023-03-28T19:29:47.260Z,3.10
2023-03-28T19:35:14.713Z,3.01
2023-03-28T19:40:42.433Z,2.88
2023-03-28T19:46:16.844Z,2.74
2023-03-28T19:51:50.049Z,2.57
2023-03-28T19:57:18.863Z,2.38
2023-03-28T20:02:46.582Z,2.19
2023-03-28T20:08:16.388Z,2.19
2023-03-28T20:13:45.123Z,2.06
2023-03-28T20:19:12.591Z,1.98
2023-03-28T20:24:40.708Z,1.91
2023-03-28T20:30:10.060Z,1.83
2023-03-28T20:35:37.665Z,1.80
2023-03-28T20:41:10.943Z,1.74
2023-03-28T20:46:46.610Z,1.70
2023-03-28T20:52:15.047Z,1.51
2023-03-28T20:57:42.944Z,1.46
2023-03-28T21:03:11.585Z,1.45
2023-03-28T21:08:39.460Z,1.42
2023-03-28T21:14:08.571Z,1.34
2023-03-28T21:19:35.750Z,1.42
2023-03-28T21:25:05.648Z,1.26
2023-03-28T21:30:33.746Z,1.30
2023-03-28T21:36:01.337Z,1.30
2023-03-28T21:41:28.497Z,1.22
2023-03-28T21:46:57.260Z,1.24
2023-03-28T21:52:24.448Z,1.15
2023-03-28T21:57:51.869Z,1.21
2023-03-28T22:03:21.180Z,1.22
2023-03-28T22:08:52.667Z,1.29
2023-03-28T22:14:20.644Z,1.37
2023-03-28T22:19:48.494Z,1.44
2023-03-28T22:25:15.555Z,1.32
2023-03-28T22:30:43.133Z,1.23
2023-03-28T22:36:11.816Z,1.16
2023-03-28T22:41:45.146Z,1.07
2023-03-28T22:47:12.855Z,0.92
2023-03-28T22:52:42.254Z,0.87
2023-03-28T22:58:10.172Z,0.85
2023-03-28T23:03:38.503Z,0.85
2023-03-28T23:09:05.794Z,0.82
2023-03-28T23:14:33.808Z,0.79
2023-03-28T23:20:07.441Z,0.85
2023-03-28T23:25:35.053Z,0.84
2023-03-28T23:31:03.164Z,0.79
2023-03-28T23:36:30.742Z,0.71
2023-03-28T23:41:57.847Z,0.66
2023-03-28T23:47:24.873Z,0.62
2023-03-28T23:52:51.937Z,0.67
2023-03-28T23:58:19.102Z,0.70
